createdAt,value
2018-09-04T00:00:51.728Z,56.70
2018-09-04T00:01:51.751Z,54.80
2018-09-04T00:02:51.770Z,58.80
2018-09-04T00:03:51.792Z,57.90
2018-09-04T00:04:51.814Z,51.30
2018-09-04T00:05:51.841Z,50.50
2018-09-04T00:06:51.856Z,50.70
2018-09-04T00:07:51.879Z,55.30
2018-09-04T00:08:51.895Z,53.50
2018-09-04T00:09:51.916Z,51.70
2018-09-04T00:10:51.934Z,50.50
2018-09-04T00:11:51.957Z,55.60
2018-09-04T00:12:51.978Z,51.10
2018-09-04T00:13:52.003Z,58.10
2018-09-04T00:14:52.022Z,54.10
2018-09-04T00:15:52.041Z,55.20
2018-09-04T00:16:52.069Z,56.70
2018-09-04T00:17:52.086Z,58.90
2018-09-04T00:18:52.105Z,58.00
2018-09-04T00:19:52.124Z,55.40
2018-09-04T00:20:52.145Z,57.10
2018-09-04T00:21:52.166Z,59.10
2018-09-04T00:22:52.188Z,56.30
2018-09-04T00:23:52.207Z,56.90
2018-09-04T00:24:52.247Z,54.80
2018-09-04T00:25:52.250Z,53.80
2018-09-04T00:26:52.271Z,53.80
2018-09-04T00:27:52.290Z,58.60
2018-09-04T00:28:52.311Z,57.20
2018-09-04T00:29:52.332Z,56.20
2018-09-04T00:30:52.353Z,57.70
2018-09-04T00:31:52.373Z,55.40
2018-09-04T00:32:52.394Z,55.40
2018-09-04T00:33:52.413Z,56.00
2018-09-04T00:34:52.440Z,51.60
2018-09-04T00:35:52.457Z,53.80
2018-09-04T00:36:52.480Z,58.30
2018-09-04T00:37:52.505Z,54.30
2018-09-04T00:38:52.520Z,58.10
2018-09-04T00:39:52.541Z,51.80
2018-09-04T00:40:52.560Z,57.20
2018-09-04T00:41:52.582Z,55.30
2018-09-04T00:42:52.603Z,59.60
2018-09-04T00:43:52.627Z,57.70
2018-09-04T00:44:52.645Z,57.00
2018-09-04T00:45:52.665Z,58.60
2018-09-04T00:46:52.717Z,57.60
2018-09-04T00:47:52.709Z,46.80
2018-09-04T00:48:52.729Z,39.00
2018-09-04T00:49:52.750Z,34.30
2018-09-04T00:50:52.778Z,36.40
2018-09-04T00:51:52.791Z,38.30
2018-09-04T00:52:52.813Z,38.30
2018-09-04T00:53:52.843Z,35.90
2018-09-04T00:54:52.852Z,35.50
2018-09-04T00:55:52.875Z,38.50
2018-09-04T00:56:52.894Z,35.00
2018-09-04T00:57:52.931Z,37.50
2018-09-04T00:58:52.969Z,36.70
2018-09-04T00:59:52.958Z,41.70
2018-09-04T01:00:52.980Z,39.80
2018-09-04T01:01:53.003Z,37.20
2018-09-04T01:02:53.019Z,35.10
2018-09-04T01:03:53.040Z,37.70
2018-09-04T01:04:53.069Z,35.60
2018-09-04T01:05:53.083Z,34.00
2018-09-04T01:06:53.103Z,34.80
2018-09-04T01:07:53.121Z,35.90
2018-09-04T01:08:53.144Z,36.50
2018-09-04T01:09:53.165Z,46.20
2018-09-04T01:10:53.186Z,44.90
2018-09-04T01:11:53.209Z,48.80
2018-09-04T01:12:53.225Z,44.20
2018-09-04T01:13:53.255Z,45.70
2018-09-04T01:14:53.268Z,45.60
2018-09-04T01:15:53.306Z,48.70
2018-09-04T01:16:53.309Z,50.20
2018-09-04T01:17:53.367Z,46.30
2018-09-04T01:18:53.354Z,49.10
2018-09-04T01:19:53.373Z,48.50
2018-09-04T01:20:53.394Z,48.70
2018-09-04T01:21:53.414Z,45.60
2018-09-04T01:22:53.434Z,48.10
2018-09-04T01:23:53.457Z,47.80
2018-09-04T01:24:53.481Z,46.50
2018-09-04T01:25:53.500Z,47.00
2018-09-04T01:26:53.516Z,48.20
2018-09-04T01:27:53.695Z,44.60
2018-09-04T01:28:53.564Z,41.50
2018-09-04T01:29:53.599Z,46.80
2018-09-04T01:30:53.601Z,47.30
2018-09-04T01:31:53.622Z,44.20
2018-09-04T01:32:53.642Z,48.40
2018-09-04T01:33:53.661Z,45.60
2018-09-04T01:34:53.684Z,45.00
2018-09-04T01:35:53.708Z,45.80
2018-09-04T01:36:53.725Z,44.30
2018-09-04T01:37:53.746Z,46.00
2018-09-04T01:38:53.765Z,46.80
2018-09-04T01:39:53.793Z,49.60
2018-09-04T01:40:53.826Z,43.00
2018-09-04T01:41:53.834Z,42.40
2018-09-04T01:42:53.856Z,41.50
2018-09-04T01:43:53.881Z,40.50
2018-09-04T01:44:53.893Z,41.30
2018-09-04T01:45:53.914Z,40.50
2018-09-04T01:46:53.935Z,41.10
2018-09-04T01:47:53.955Z,46.30
2018-09-04T01:48:53.974Z,45.20
2018-09-04T01:49:53.997Z,48.40
2018-09-04T01:50:54.018Z,47.30
2018-09-04T01:51:54.036Z,48.00
2018-09-04T01:52:54.062Z,44.70
2018-09-04T01:53:54.080Z,47.60
2018-09-04T01:54:54.110Z,51.20
2018-09-04T01:55:54.121Z,46.80
2018-09-04T01:56:54.186Z,47.90
2018-09-04T01:57:54.161Z,47.80
2018-09-04T01:58:54.183Z,48.30
2018-09-04T01:59:54.204Z,42.40
2018-09-04T02:00:54.231Z,44.50
2018-09-04T02:01:54.248Z,45.10
2018-09-04T02:02:54.266Z,45.00
2018-09-04T02:03:54.344Z,46.40
2018-09-04T02:04:54.450Z,46.90
2018-09-04T02:05:54.407Z,44.00
2018-09-04T02:06:54.549Z,43.70
2018-09-04T02:07:54.443Z,45.50
2018-09-04T02:08:54.421Z,43.20
2018-09-04T02:09:54.491Z,44.00
2018-09-04T02:10:54.623Z,45.90
2018-09-04T02:11:54.475Z,42.80
2018-09-04T02:12:54.608Z,39.90
2018-09-04T02:13:54.513Z,40.90
2018-09-04T02:14:54.534Z,43.60
2018-09-04T02:15:54.544Z,43.00
2018-09-04T02:16:54.582Z,45.00
2018-09-04T02:17:54.584Z,46.80
2018-09-04T02:18:54.670Z,49.00
2018-09-04T02:19:54.624Z,43.90
2018-09-04T02:20:54.644Z,40.20
2018-09-04T02:21:54.664Z,45.90
2018-09-04T02:22:54.686Z,45.10
2018-09-04T02:23:54.711Z,42.90
2018-09-04T02:24:54.730Z,47.00
2018-09-04T02:25:54.752Z,52.00
2018-09-04T02:26:54.770Z,42.20
2018-09-04T02:27:54.793Z,49.40
2018-09-04T02:28:54.808Z,46.20
2018-09-04T02:29:54.967Z,46.40
2018-09-04T02:30:54.848Z,45.80
2018-09-04T02:31:54.871Z,43.50
2018-09-04T02:32:54.893Z,44.40
2018-09-04T02:33:54.911Z,39.90
2018-09-04T02:34:54.940Z,44.50
2018-09-04T02:35:54.956Z,46.80
2018-09-04T02:36:54.972Z,42.80
2018-09-04T02:37:54.995Z,46.30
2018-09-04T02:38:55.018Z,48.40
2018-09-04T02:39:55.036Z,46.30
2018-09-04T02:40:55.055Z,50.10
2018-09-04T02:41:55.079Z,52.10
2018-09-04T02:42:55.099Z,49.00
2018-09-04T02:43:55.120Z,46.50
2018-09-04T02:44:55.141Z,49.40
2018-09-04T02:45:55.172Z,46.80
2018-09-04T02:46:55.188Z,45.50
2018-09-04T02:47:55.206Z,46.90
2018-09-04T02:48:55.223Z,46.10
2018-09-04T02:49:55.245Z,48.70
2018-09-04T02:50:55.263Z,46.50
2018-09-04T02:51:55.292Z,49.40
2018-09-04T02:52:55.308Z,46.70
2018-09-04T02:53:55.328Z,47.00
2018-09-04T02:54:55.344Z,41.60
2018-09-04T02:55:55.367Z,44.00
2018-09-04T02:56:55.390Z,48.50
2018-09-04T02:57:55.410Z,46.90
2018-09-04T02:58:55.430Z,43.20
2018-09-04T02:59:55.450Z,47.60
2018-09-04T03:00:55.471Z,49.60
2018-09-04T03:01:55.497Z,44.60
2018-09-04T03:02:55.511Z,45.20
2018-09-04T03:03:55.532Z,45.50
2018-09-04T03:04:55.555Z,42.20
2018-09-04T03:05:55.573Z,43.40
2018-09-04T03:06:55.603Z,46.20
2018-09-04T03:07:55.617Z,50.30
2018-09-04T03:08:55.637Z,45.40
2018-09-04T03:09:55.654Z,48.60
2018-09-04T03:10:55.676Z,49.60
2018-09-04T03:11:55.706Z,50.30
2018-09-04T03:12:55.715Z,45.30
2018-09-04T03:13:55.787Z,46.50
2018-09-04T03:14:55.829Z,50.50
2018-09-04T03:15:55.789Z,46.90
2018-09-04T03:16:55.800Z,47.30
2018-09-04T03:17:55.819Z,46.60
2018-09-04T03:18:55.840Z,46.50
2018-09-04T03:19:55.861Z,44.50
2018-09-04T03:20:55.886Z,45.30
2018-09-04T03:21:55.902Z,47.70
2018-09-04T03:22:55.941Z,44.60
2018-09-04T03:23:55.942Z,44.60
2018-09-04T03:24:55.964Z,45.90
2018-09-04T03:25:55.982Z,47.10
2018-09-04T03:26:56.011Z,45.50
2018-09-04T03:27:56.024Z,45.00
2018-09-04T03:28:56.048Z,45.10
2018-09-04T03:29:56.066Z,45.00
2018-09-04T03:30:56.103Z,47.60
2018-09-04T03:31:56.106Z,40.90
2018-09-04T03:32:56.128Z,45.40
2018-09-04T03:33:56.156Z,43.70
2018-09-04T03:34:56.172Z,45.00
2018-09-04T03:35:56.195Z,41.50
2018-09-04T03:36:56.213Z,44.70
2018-09-04T03:37:56.246Z,42.10
2018-09-04T03:38:56.252Z,45.70
2018-09-04T03:39:56.269Z,40.40
2018-09-04T03:40:56.293Z,46.00
2018-09-04T03:41:56.325Z,47.90
2018-09-04T03:42:56.330Z,44.20
2018-09-04T03:43:56.360Z,46.40
2018-09-04T03:44:56.415Z,44.60
2018-09-04T03:45:56.399Z,41.90
2018-09-04T03:46:56.412Z,42.30
2018-09-04T03:47:56.439Z,45.00
2018-09-04T03:48:56.458Z,45.00
2018-09-04T03:49:56.479Z,46.60
2018-09-04T03:50:56.499Z,41.60
2018-09-04T03:51:56.521Z,43.00
2018-09-04T03:52:56.545Z,41.60
2018-09-04T03:53:56.557Z,43.20
2018-09-04T03:54:56.575Z,43.70
2018-09-04T03:55:56.600Z,44.10
2018-09-04T03:56:56.621Z,45.70
2018-09-04T03:57:56.642Z,44.50
2018-09-04T03:58:56.658Z,46.90
2018-09-04T03:59:56.685Z,41.30
2018-09-04T04:00:56.712Z,38.20
2018-09-04T04:01:56.721Z,41.10
2018-09-04T04:02:56.746Z,42.30
2018-09-04T04:03:56.761Z,37.10
2018-09-04T04:04:56.864Z,43.60
2018-09-04T04:05:56.817Z,42.00
2018-09-04T04:06:56.823Z,39.70
2018-09-04T04:07:56.858Z,41.50
2018-09-04T04:08:56.867Z,41.20
2018-09-04T04:09:56.890Z,43.20
2018-09-04T04:10:56.904Z,42.20
2018-09-04T04:11:56.945Z,42.40
2018-09-04T04:12:56.951Z,41.40
2018-09-04T04:13:56.966Z,42.70
2018-09-04T04:14:56.985Z,44.80
2018-09-04T04:15:57.004Z,45.80
2018-09-04T04:16:57.031Z,41.50
2018-09-04T04:17:57.048Z,43.30
2018-09-04T04:18:57.069Z,43.80
2018-09-04T04:19:57.088Z,42.10
2018-09-04T04:20:57.108Z,46.00
2018-09-04T04:21:57.127Z,47.40
2018-09-04T04:22:57.148Z,46.40
2018-09-04T04:23:57.214Z,42.50
2018-09-04T04:24:57.190Z,43.00
2018-09-04T04:25:57.209Z,44.90
2018-09-04T04:26:57.227Z,40.70
2018-09-04T04:27:57.250Z,46.10
2018-09-04T04:28:57.271Z,46.70
2018-09-04T04:29:57.289Z,42.20
2018-09-04T04:30:57.309Z,42.50
2018-09-04T04:31:57.330Z,44.10
2018-09-04T04:32:57.573Z,40.60
2018-09-04T04:33:57.371Z,41.70
2018-09-04T04:34:57.389Z,39.20
2018-09-04T04:35:57.411Z,42.00
2018-09-04T04:36:57.431Z,40.10
2018-09-04T04:37:57.452Z,39.80
2018-09-04T04:38:57.477Z,43.90
2018-09-04T04:39:57.509Z,42.70
2018-09-04T04:40:57.515Z,46.20
2018-09-04T04:41:57.530Z,47.00
2018-09-04T04:42:57.551Z,45.20
2018-09-04T04:43:57.572Z,43.70
2018-09-04T04:44:57.595Z,42.80
2018-09-04T04:45:57.622Z,43.00
2018-09-04T04:46:57.634Z,40.60
2018-09-04T04:47:57.734Z,43.10
2018-09-04T04:48:57.673Z,47.00
2018-09-04T04:49:57.693Z,46.60
2018-09-04T04:50:57.713Z,42.90
2018-09-04T04:51:57.736Z,46.20
2018-09-04T04:52:57.756Z,49.60
2018-09-04T04:53:57.778Z,56.50
2018-09-04T04:54:57.806Z,53.50
2018-09-04T04:55:57.813Z,46.60
2018-09-04T04:56:57.836Z,46.50
2018-09-04T04:57:57.855Z,45.40
2018-09-04T04:58:57.871Z,43.00
2018-09-04T04:59:57.893Z,43.80
2018-09-04T05:00:57.912Z,40.60
2018-09-04T05:01:57.937Z,43.80
2018-09-04T05:02:57.955Z,40.20
2018-09-04T05:03:57.977Z,39.10
2018-09-04T05:04:58.000Z,40.10
2018-09-04T05:05:58.015Z,40.60
2018-09-04T05:06:58.037Z,41.10
2018-09-04T05:07:58.061Z,39.70
2018-09-04T05:08:58.073Z,38.60
2018-09-04T05:09:58.097Z,42.00
2018-09-04T05:10:58.171Z,40.70
2018-09-04T05:11:58.137Z,40.50
2018-09-04T05:12:58.156Z,44.60
2018-09-04T05:13:58.177Z,40.80
2018-09-04T05:14:58.200Z,40.40
2018-09-04T05:15:58.219Z,39.20
2018-09-04T05:16:58.241Z,39.60
2018-09-04T05:17:58.259Z,42.80
2018-09-04T05:18:58.278Z,38.00
2018-09-04T05:19:58.299Z,41.50
2018-09-04T05:20:58.321Z,37.70
2018-09-04T05:21:58.344Z,36.50
2018-09-04T05:22:58.361Z,39.40
2018-09-04T05:23:58.379Z,41.10
2018-09-04T05:24:58.400Z,37.80
2018-09-04T05:25:58.422Z,38.50
2018-09-04T05:26:58.440Z,36.00
2018-09-04T05:27:58.463Z,36.00
2018-09-04T05:28:58.492Z,39.70
2018-09-04T05:29:58.504Z,38.40
2018-09-04T05:30:58.526Z,37.80
2018-09-04T05:31:58.546Z,38.00
2018-09-04T05:32:58.563Z,38.20
2018-09-04T05:33:58.585Z,36.80
2018-09-04T05:34:58.610Z,37.40
2018-09-04T05:35:58.629Z,37.00
2018-09-04T05:36:58.667Z,39.10
2018-09-04T05:37:58.669Z,40.30
2018-09-04T05:38:58.690Z,38.20
2018-09-04T05:39:58.710Z,37.90
2018-09-04T05:40:58.732Z,37.50
2018-09-04T05:41:58.750Z,39.30
2018-09-04T05:42:58.772Z,37.70
2018-09-04T05:43:58.794Z,41.20
2018-09-04T05:44:58.811Z,38.20
2018-09-04T05:45:58.833Z,36.70
2018-09-04T05:46:58.864Z,34.20
2018-09-04T05:47:58.874Z,39.50
2018-09-04T05:48:58.895Z,36.40
2018-09-04T05:49:58.916Z,36.00
2018-09-04T05:50:58.942Z,39.80
2018-09-04T05:51:58.955Z,38.90
2018-09-04T05:52:58.979Z,41.60
2018-09-04T05:53:58.998Z,44.20
2018-09-04T05:54:59.067Z,41.50
2018-09-04T05:55:59.041Z,41.50
2018-09-04T05:56:59.063Z,39.90
2018-09-04T05:57:59.083Z,40.50
2018-09-04T05:58:59.107Z,41.10
2018-09-04T05:59:59.126Z,41.60
2018-09-04T06:00:59.145Z,39.90
2018-09-04T06:01:59.167Z,40.60
2018-09-04T06:02:59.188Z,40.90
2018-09-04T06:03:59.216Z,37.00
2018-09-04T06:04:59.231Z,40.60
2018-09-04T06:05:59.254Z,40.10
2018-09-04T06:06:59.276Z,38.20
2018-09-04T06:07:59.298Z,40.90
2018-09-04T06:08:59.321Z,40.10
2018-09-04T06:09:59.340Z,39.20
2018-09-04T06:10:59.361Z,37.10
2018-09-04T06:11:59.385Z,38.80
2018-09-04T06:12:59.447Z,41.90
2018-09-04T06:13:59.424Z,39.60
2018-09-04T06:14:59.445Z,40.00
2018-09-04T06:15:59.471Z,39.00
2018-09-04T06:16:59.494Z,39.50
2018-09-04T06:17:59.510Z,44.20
2018-09-04T06:18:59.529Z,40.70
2018-09-04T06:19:59.571Z,41.70
2018-09-04T06:20:59.577Z,40.40
2018-09-04T06:21:59.597Z,41.00
2018-09-04T06:22:59.619Z,43.70
2018-09-04T06:23:59.653Z,46.40
2018-09-04T06:24:59.663Z,41.80
2018-09-04T06:25:59.703Z,44.70
2018-09-04T06:26:59.706Z,45.00
2018-09-04T06:27:59.730Z,45.30
2018-09-04T06:28:59.749Z,45.50
2018-09-04T06:29:59.779Z,44.70
2018-09-04T06:30:59.793Z,41.30
2018-09-04T06:31:59.821Z,41.70
2018-09-04T06:32:59.835Z,45.40
2018-09-04T06:33:59.882Z,45.50
2018-09-04T06:35:00.067Z,41.90
2018-09-04T06:35:59.902Z,45.80
2018-09-04T06:36:59.924Z,44.00
2018-09-04T06:37:59.949Z,47.40
2018-09-04T06:38:59.969Z,40.40
2018-09-04T06:39:59.989Z,39.20
2018-09-04T06:41:00.012Z,39.70
2018-09-04T06:42:00.039Z,39.90
2018-09-04T06:43:00.063Z,39.80
2018-09-04T06:44:00.084Z,42.40
2018-09-04T06:45:00.113Z,40.70
2018-09-04T06:46:00.128Z,40.10
2018-09-04T06:47:00.149Z,39.50
2018-09-04T06:48:00.172Z,37.00
2018-09-04T06:49:00.203Z,39.10
2018-09-04T06:50:00.219Z,37.60
2018-09-04T06:51:00.248Z,40.10
2018-09-04T06:52:00.272Z,34.90
2018-09-04T06:53:00.299Z,39.10
2018-09-04T06:54:00.321Z,36.20
2018-09-04T06:55:00.341Z,38.00
2018-09-04T06:56:00.366Z,35.60
2018-09-04T06:57:00.390Z,37.80
2018-09-04T06:58:00.552Z,40.90
2018-09-04T06:59:00.442Z,35.60
2018-09-04T07:00:00.468Z,31.90
2018-09-04T07:01:00.491Z,37.00
2018-09-04T07:02:00.606Z,35.10
2018-09-04T07:03:00.543Z,38.30
2018-09-04T07:04:00.569Z,35.90
2018-09-04T07:05:00.598Z,33.90
2018-09-04T07:06:00.629Z,31.20
2018-09-04T07:07:00.651Z,32.50
2018-09-04T07:08:00.676Z,33.30
2018-09-04T07:09:00.700Z,32.00
2018-09-04T07:10:00.730Z,33.90
2018-09-04T07:11:00.756Z,35.10
2018-09-04T07:12:00.782Z,35.30
2018-09-04T07:13:00.809Z,34.00
2018-09-04T07:14:00.834Z,34.20
2018-09-04T07:15:00.899Z,32.60
2018-09-04T07:16:00.893Z,31.70
2018-09-04T07:17:01.009Z,30.50
2018-09-04T07:18:00.948Z,33.30
2018-09-04T07:19:00.969Z,31.20
2018-09-04T07:20:01.007Z,31.50
2018-09-04T07:21:01.044Z,32.50
2018-09-04T07:22:01.058Z,30.90
2018-09-04T07:23:01.084Z,29.50
2018-09-04T07:24:01.136Z,32.00
2018-09-04T07:25:01.137Z,34.60
2018-09-04T07:26:01.180Z,32.70
2018-09-04T07:27:01.189Z,32.00
2018-09-04T07:28:01.219Z,31.20
2018-09-04T07:29:01.245Z,32.10
2018-09-04T07:30:01.278Z,34.60
2018-09-04T07:31:01.304Z,31.70
2018-09-04T07:32:01.329Z,33.40
2018-09-04T07:33:01.358Z,33.30
2018-09-04T07:34:01.388Z,36.80
2018-09-04T07:35:01.417Z,30.30
2018-09-04T07:36:01.441Z,32.30
2018-09-04T07:37:01.474Z,33.20
2018-09-04T07:38:01.499Z,32.90
2018-09-04T07:39:01.524Z,32.90
2018-09-04T07:40:01.555Z,36.90
2018-09-04T07:41:01.590Z,31.50
2018-09-04T07:42:01.672Z,32.60
2018-09-04T07:43:01.640Z,34.60
2018-09-04T07:44:01.667Z,34.70
2018-09-04T07:45:01.697Z,34.10
2018-09-04T07:46:01.718Z,34.10
2018-09-04T07:47:01.746Z,33.80
2018-09-04T07:48:01.776Z,35.10
2018-09-04T07:49:01.802Z,35.70
2018-09-04T07:50:01.837Z,35.60
2018-09-04T07:51:01.865Z,37.00
2018-09-04T07:52:01.892Z,33.10
2018-09-04T07:53:01.925Z,31.50
2018-09-04T07:54:01.945Z,31.60
2018-09-04T07:55:01.977Z,32.60
2018-09-04T07:56:02.002Z,30.40
2018-09-04T07:57:02.029Z,32.00
2018-09-04T07:58:02.057Z,33.60
2018-09-04T07:59:02.086Z,33.90
2018-09-04T08:00:02.124Z,31.10
2018-09-04T08:01:02.191Z,31.90
2018-09-04T08:02:02.172Z,34.20
2018-09-04T08:03:02.196Z,35.40
2018-09-04T08:04:02.232Z,32.00
2018-09-04T08:05:02.263Z,32.70
2018-09-04T08:06:02.284Z,31.10
2018-09-04T08:07:02.313Z,30.30
2018-09-04T08:08:02.342Z,30.70
2018-09-04T08:09:02.373Z,35.00
2018-09-04T08:10:02.430Z,31.10
2018-09-04T08:11:02.431Z,32.50
2018-09-04T08:12:02.453Z,32.10
2018-09-04T08:13:02.484Z,35.40
2018-09-04T08:14:02.517Z,34.00
2018-09-04T08:15:02.543Z,36.80
2018-09-04T08:16:02.571Z,32.10
2018-09-04T08:17:02.611Z,32.60
2018-09-04T08:18:02.629Z,34.10
2018-09-04T08:19:02.653Z,32.40
2018-09-04T08:20:02.686Z,33.00
2018-09-04T08:21:02.714Z,35.70
2018-09-04T08:22:02.741Z,32.50
2018-09-04T08:23:02.771Z,33.20
2018-09-04T08:24:02.798Z,34.60
2018-09-04T08:25:02.829Z,32.80
2018-09-04T08:26:02.910Z,34.50
2018-09-04T08:27:02.939Z,34.50
2018-09-04T08:28:02.911Z,33.30
2018-09-04T08:29:02.935Z,34.10
2018-09-04T08:30:02.964Z,34.40
2018-09-04T08:31:02.993Z,35.40
2018-09-04T08:32:03.017Z,35.90
2018-09-04T08:33:03.047Z,34.10
2018-09-04T08:34:03.121Z,34.80
2018-09-04T08:35:03.108Z,36.70
2018-09-04T08:36:03.143Z,34.20
2018-09-04T08:37:03.156Z,36.30
2018-09-04T08:38:03.178Z,36.30
2018-09-04T08:39:03.204Z,36.90
2018-09-04T08:40:03.293Z,36.80
2018-09-04T08:41:03.262Z,37.80
2018-09-04T08:42:03.284Z,39.00
2018-09-04T08:43:03.309Z,37.00
2018-09-04T08:44:03.334Z,38.60
2018-09-04T08:45:03.359Z,36.00
2018-09-04T08:46:03.391Z,36.80
2018-09-04T08:47:03.475Z,39.30
2018-09-04T08:48:03.440Z,35.70
2018-09-04T08:49:03.493Z,36.10
2018-09-04T08:50:03.488Z,39.70
2018-09-04T08:51:03.518Z,36.60
2018-09-04T08:52:03.540Z,40.00
2018-09-04T08:53:03.566Z,33.30
2018-09-04T08:54:03.594Z,32.20
2018-09-04T08:55:03.619Z,32.10
2018-09-04T08:56:03.640Z,30.50
2018-09-04T08:57:03.684Z,31.90
2018-09-04T08:58:03.693Z,29.80
2018-09-04T08:59:03.715Z,28.50
2018-09-04T09:00:03.741Z,25.40
2018-09-04T09:01:03.771Z,26.80
2018-09-04T09:02:03.794Z,24.80
2018-09-04T09:03:03.818Z,20.50
2018-09-04T09:04:03.844Z,25.20
2018-09-04T09:05:03.864Z,20.70
2018-09-04T09:06:03.899Z,21.40
2018-09-04T09:07:03.916Z,21.40
2018-09-04T09:08:03.941Z,25.40
2018-09-04T09:09:03.966Z,18.80
2018-09-04T09:10:04.064Z,21.90
2018-09-04T09:11:04.056Z,20.70
2018-09-04T09:12:04.034Z,21.10
2018-09-04T09:13:04.062Z,24.40
2018-09-04T09:14:04.089Z,23.80
2018-09-04T09:15:04.109Z,21.60
2018-09-04T09:16:04.134Z,22.00
2018-09-04T09:17:04.162Z,22.60
2018-09-04T09:18:04.186Z,23.40
2018-09-04T09:19:04.206Z,21.30
2018-09-04T09:20:04.231Z,21.60
2018-09-04T09:21:04.255Z,24.00
2018-09-04T09:22:04.277Z,21.50
2018-09-04T09:23:04.300Z,23.10
2018-09-04T09:24:04.325Z,21.10
2018-09-04T09:25:04.348Z,22.20
2018-09-04T09:26:04.377Z,22.60
2018-09-04T09:27:04.394Z,25.50
2018-09-04T09:28:04.424Z,19.50
2018-09-04T09:29:04.444Z,19.00
2018-09-04T09:30:04.468Z,20.20
2018-09-04T09:31:04.500Z,22.30
2018-09-04T09:32:04.523Z,19.60
2018-09-04T09:33:04.562Z,18.90
2018-09-04T09:34:04.574Z,19.40
2018-09-04T09:35:04.604Z,25.30
2018-09-04T09:36:04.653Z,18.40
2018-09-04T09:37:04.665Z,22.90
2018-09-04T09:38:04.667Z,19.50
2018-09-04T09:39:04.684Z,18.60
2018-09-04T09:40:04.706Z,20.30
2018-09-04T09:41:04.730Z,22.10
2018-09-04T09:42:04.766Z,19.90
2018-09-04T09:43:04.776Z,19.10
2018-09-04T09:44:04.809Z,20.10
2018-09-04T09:45:04.828Z,22.00
2018-09-04T09:46:04.851Z,21.90
2018-09-04T09:47:04.874Z,22.00
2018-09-04T09:48:04.902Z,25.30
2018-09-04T09:49:04.930Z,22.20
2018-09-04T09:50:04.953Z,21.40
2018-09-04T09:51:04.969Z,25.30
2018-09-04T09:52:04.994Z,20.00
2018-09-04T09:53:05.071Z,21.10
2018-09-04T09:54:05.099Z,20.50
2018-09-04T09:55:05.065Z,18.00
2018-09-04T09:56:05.097Z,19.50
2018-09-04T09:57:05.140Z,18.70
2018-09-04T09:58:05.135Z,18.20
2018-09-04T09:59:05.184Z,18.80
2018-09-04T10:00:05.295Z,19.50
2018-09-04T10:01:05.233Z,21.50
2018-09-04T10:02:05.234Z,18.40
2018-09-04T10:03:05.290Z,18.70
2018-09-04T10:04:05.310Z,18.90
2018-09-04T10:05:05.308Z,18.60
2018-09-04T10:06:05.328Z,17.90
2018-09-04T10:07:05.350Z,19.50
2018-09-04T10:08:05.463Z,17.00
2018-09-04T10:09:05.402Z,18.50
2018-09-04T10:10:05.453Z,18.20
2018-09-04T10:11:05.471Z,19.20
2018-09-04T10:12:05.471Z,23.80
2018-09-04T10:13:05.494Z,18.20
2018-09-04T10:14:05.524Z,20.80
2018-09-04T10:15:05.545Z,17.40
2018-09-04T10:16:05.575Z,18.70
2018-09-04T10:17:05.590Z,15.40
2018-09-04T10:18:05.615Z,18.00
2018-09-04T10:19:05.641Z,18.10
2018-09-04T10:20:05.668Z,17.10
2018-09-04T10:21:05.690Z,19.00
2018-09-04T10:22:05.716Z,18.50
2018-09-04T10:23:05.746Z,15.70
2018-09-04T10:24:05.772Z,18.80
2018-09-04T10:25:05.783Z,17.20
2018-09-04T10:26:05.811Z,16.60
2018-09-04T10:27:05.867Z,19.70
2018-09-04T10:28:05.857Z,19.00
2018-09-04T10:29:05.885Z,17.70
2018-09-04T10:30:05.959Z,15.30
2018-09-04T10:31:05.927Z,17.10
2018-09-04T10:32:05.948Z,18.10
2018-09-04T10:33:05.976Z,17.70
2018-09-04T10:34:06.001Z,17.30
2018-09-04T10:35:06.026Z,18.40
2018-09-04T10:36:06.101Z,17.00
2018-09-04T10:37:06.070Z,17.80
2018-09-04T10:38:06.098Z,16.80
2018-09-04T10:39:06.120Z,20.20
2018-09-04T10:40:06.148Z,16.30
2018-09-04T10:41:06.170Z,17.70
2018-09-04T10:42:06.240Z,16.30
2018-09-04T10:43:06.216Z,16.20
2018-09-04T10:44:06.241Z,16.10
2018-09-04T10:45:06.266Z,14.80
2018-09-04T10:46:06.294Z,15.90
2018-09-04T10:47:06.317Z,13.20
2018-09-04T10:48:06.345Z,15.20
2018-09-04T10:49:06.398Z,16.10
2018-09-04T10:50:06.392Z,15.40
2018-09-04T10:51:06.412Z,18.30
2018-09-04T10:52:06.435Z,13.80
2018-09-04T10:53:06.460Z,17.30
2018-09-04T10:54:06.486Z,15.60
2018-09-04T10:55:06.514Z,15.20
2018-09-04T10:56:06.535Z,16.20
2018-09-04T10:57:06.559Z,13.70
2018-09-04T10:58:06.587Z,17.60
2018-09-04T10:59:06.624Z,21.80
2018-09-04T11:00:06.634Z,15.20
2018-09-04T11:01:06.656Z,17.20
2018-09-04T11:02:06.692Z,17.90
2018-09-04T11:03:06.708Z,18.00
2018-09-04T11:04:06.762Z,21.40
2018-09-04T11:05:06.761Z,13.20
2018-09-04T11:06:06.834Z,16.80
2018-09-04T11:07:06.831Z,16.50
2018-09-04T11:08:06.832Z,15.80
2018-09-04T11:09:06.923Z,13.80
2018-09-04T11:10:06.878Z,16.80
2018-09-04T11:11:06.904Z,17.20
2018-09-04T11:12:06.934Z,14.00
2018-09-04T11:13:06.954Z,15.80
2018-09-04T11:14:06.980Z,14.90
2018-09-04T11:15:07.004Z,13.60
2018-09-04T11:16:07.030Z,15.30
2018-09-04T11:17:07.052Z,15.00
2018-09-04T11:18:07.081Z,13.80
2018-09-04T11:19:07.136Z,18.10
2018-09-04T11:20:07.125Z,16.50
2018-09-04T11:21:07.149Z,13.30
2018-09-04T11:22:07.179Z,13.90
2018-09-04T11:23:07.200Z,13.00
2018-09-04T11:24:07.222Z,15.40
2018-09-04T11:25:07.248Z,16.60
2018-09-04T11:26:07.271Z,13.90
2018-09-04T11:27:07.295Z,14.90
2018-09-04T11:28:07.321Z,12.80
2018-09-04T11:29:07.345Z,13.10
2018-09-04T11:30:07.370Z,12.10
2018-09-04T11:31:07.393Z,14.70
2018-09-04T11:32:07.417Z,12.50
2018-09-04T11:33:07.441Z,14.50
2018-09-04T11:34:07.470Z,13.10
2018-09-04T11:35:07.499Z,11.60
2018-09-04T11:36:07.517Z,15.20
2018-09-04T11:37:07.549Z,15.30
2018-09-04T11:38:07.566Z,15.80
2018-09-04T11:39:07.590Z,13.00
2018-09-04T11:40:07.619Z,13.10
2018-09-04T11:41:07.641Z,13.20
2018-09-04T11:42:07.669Z,13.00
2018-09-04T11:43:07.687Z,12.80
2018-09-04T11:44:07.716Z,11.60
2018-09-04T11:45:07.736Z,13.60
2018-09-04T11:46:07.762Z,11.10
2018-09-04T11:47:07.784Z,11.90
2018-09-04T11:48:07.813Z,14.30
2018-09-04T11:49:07.854Z,13.10
2018-09-04T11:50:07.864Z,14.40
2018-09-04T11:51:07.893Z,16.60
2018-09-04T11:52:07.909Z,15.00
2018-09-04T11:53:07.934Z,13.80
2018-09-04T11:54:07.967Z,13.60
2018-09-04T11:55:07.983Z,15.20
2018-09-04T11:56:08.004Z,12.60
2018-09-04T11:57:08.033Z,13.90
2018-09-04T11:58:08.055Z,11.00
2018-09-04T11:59:08.079Z,18.40
2018-09-04T12:00:08.110Z,12.20
2018-09-04T12:01:08.197Z,14.30
2018-09-04T12:02:08.322Z,12.20
2018-09-04T12:03:08.176Z,12.80
2018-09-04T12:04:08.204Z,16.00
2018-09-04T12:05:08.230Z,14.70
2018-09-04T12:06:08.254Z,12.50
2018-09-04T12:07:08.300Z,14.80
2018-09-04T12:08:08.298Z,11.80
2018-09-04T12:09:08.333Z,14.80
2018-09-04T12:10:08.348Z,11.20
2018-09-04T12:11:08.375Z,13.30
2018-09-04T12:12:08.406Z,12.30
2018-09-04T12:13:08.451Z,11.60
2018-09-04T12:14:08.464Z,11.40
2018-09-04T12:15:08.477Z,11.20
2018-09-04T12:16:08.496Z,13.00
2018-09-04T12:17:08.525Z,13.40
2018-09-04T12:18:08.549Z,12.10
2018-09-04T12:19:08.574Z,16.60
2018-09-04T12:20:08.607Z,11.70
2018-09-04T12:21:08.801Z,12.90
2018-09-04T12:22:08.647Z,13.40
2018-09-04T12:23:08.680Z,15.70
2018-09-04T12:24:08.696Z,14.80
2018-09-04T12:25:08.719Z,13.20
2018-09-04T12:26:08.753Z,15.20
2018-09-04T12:27:08.830Z,14.50
2018-09-04T12:28:08.873Z,17.10
2018-09-04T12:29:08.823Z,15.00
2018-09-04T12:30:08.844Z,14.40
2018-09-04T12:31:08.868Z,11.60
2018-09-04T12:32:08.895Z,13.10
2018-09-04T12:33:08.946Z,14.80
2018-09-04T12:34:08.945Z,13.70
2018-09-04T12:35:08.971Z,12.70
2018-09-04T12:36:08.998Z,11.10
2018-09-04T12:37:09.018Z,15.30
2018-09-04T12:38:09.045Z,13.40
2018-09-04T12:39:09.065Z,12.80
2018-09-04T12:40:09.090Z,12.70
2018-09-04T12:41:09.122Z,12.20
2018-09-04T12:42:09.140Z,14.70
2018-09-04T12:43:09.165Z,14.70
2018-09-04T12:44:09.306Z,14.60
2018-09-04T12:45:09.213Z,14.10
2018-09-04T12:46:09.237Z,17.30
2018-09-04T12:47:09.262Z,14.90
2018-09-04T12:48:09.299Z,12.50
2018-09-04T12:49:09.311Z,10.70
2018-09-04T12:50:09.335Z,13.40
2018-09-04T12:51:09.378Z,14.30
2018-09-04T12:52:09.410Z,11.50
2018-09-04T12:53:09.411Z,11.10